createdAt,value
2019-02-08T00:00:26.986Z,1.80
2019-02-08T00:01:26.975Z,1.60
2019-02-08T00:02:26.932Z,1.90
2019-02-08T00:03:26.946Z,2.00
2019-02-08T00:04:26.907Z,1.60
2019-02-08T00:05:26.874Z,1.70
2019-02-08T00:06:26.851Z,1.40
2019-02-08T00:07:26.817Z,1.70
2019-02-08T00:08:26.787Z,1.30
2019-02-08T00:09:26.775Z,1.60
2019-02-08T00:10:26.770Z,1.50
2019-02-08T00:11:26.719Z,1.50
2019-02-08T00:12:26.702Z,1.60
2019-02-08T00:13:26.682Z,1.80
2019-02-08T00:14:26.666Z,1.60
2019-02-08T00:15:26.619Z,1.70
2019-02-08T00:16:26.603Z,2.00
2019-02-08T00:17:26.606Z,1.40
2019-02-08T00:18:26.554Z,1.60
2019-02-08T00:19:26.537Z,1.40
2019-02-08T00:20:26.533Z,1.50
2019-02-08T00:21:26.513Z,1.40
2019-02-08T00:22:26.493Z,1.60
2019-02-08T00:23:27.554Z,1.70
2019-02-08T00:24:26.458Z,1.50
2019-02-08T00:25:26.393Z,1.50
2019-02-08T00:26:26.367Z,1.50
2019-02-08T00:27:26.355Z,1.30
2019-02-08T00:28:26.342Z,1.30
2019-02-08T00:29:26.305Z,1.70
2019-02-08T00:30:26.281Z,1.80
2019-02-08T00:31:26.249Z,1.30
2019-02-08T00:32:26.252Z,1.60
2019-02-08T00:33:26.232Z,1.40
2019-02-08T00:34:26.179Z,1.70
2019-02-08T00:35:26.176Z,1.40
2019-02-08T00:36:26.162Z,1.40
2019-02-08T00:37:26.137Z,1.50
2019-02-08T00:38:26.083Z,1.50
2019-02-08T00:39:26.065Z,1.60
2019-02-08T00:40:26.046Z,1.50
2019-02-08T00:41:26.017Z,1.50
2019-02-08T00:42:25.987Z,1.10
2019-02-08T00:43:25.974Z,1.70
2019-02-08T00:44:25.949Z,1.40
2019-02-08T00:45:25.925Z,1.40
2019-02-08T00:46:25.895Z,1.30
2019-02-08T00:47:25.887Z,1.50
2019-02-08T00:48:25.879Z,1.50
2019-02-08T00:49:25.825Z,1.60
2019-02-08T00:50:25.817Z,1.20
2019-02-08T00:51:25.794Z,1.70
2019-02-08T00:52:25.751Z,1.40
2019-02-08T00:53:25.757Z,1.40
2019-02-08T00:54:25.721Z,1.50
2019-02-08T00:55:25.696Z,2.00
2019-02-08T00:56:25.655Z,1.40
2019-02-08T00:57:25.686Z,1.80
2019-02-08T00:58:25.624Z,1.50
2019-02-08T00:59:25.592Z,1.60
2019-02-08T01:00:25.558Z,1.40
2019-02-08T01:01:25.555Z,1.70
2019-02-08T01:02:25.529Z,1.80
2019-02-08T01:03:25.503Z,1.50
2019-02-08T01:04:25.475Z,1.80
2019-02-08T01:05:25.477Z,1.40
2019-02-08T01:06:25.429Z,2.00
2019-02-08T01:07:25.422Z,1.50
2019-02-08T01:08:25.389Z,1.40
2019-02-08T01:09:25.364Z,1.70
2019-02-08T01:10:25.333Z,1.30
2019-02-08T01:11:25.309Z,1.90
2019-02-08T01:12:25.281Z,1.40
2019-02-08T01:13:25.272Z,1.30
2019-02-08T01:14:25.243Z,1.80
2019-02-08T01:15:25.250Z,1.40
2019-02-08T01:16:25.190Z,1.40
2019-02-08T01:17:25.169Z,1.60
2019-02-08T01:18:25.144Z,1.50
2019-02-08T01:19:25.109Z,1.30
2019-02-08T01:20:25.111Z,1.70
2019-02-08T01:21:25.080Z,1.40
2019-02-08T01:22:25.079Z,1.80
2019-02-08T01:23:25.046Z,1.60
2019-02-08T01:24:25.017Z,1.50
2019-02-08T01:25:24.995Z,1.50
2019-02-08T01:26:24.963Z,1.50
2019-02-08T01:27:24.957Z,1.60
2019-02-08T01:28:24.897Z,1.60
2019-02-08T01:29:24.886Z,1.50
2019-02-08T01:30:24.860Z,1.30
2019-02-08T01:31:24.845Z,2.00
2019-02-08T01:32:24.838Z,1.60
2019-02-08T01:33:24.781Z,1.50
2019-02-08T01:34:24.768Z,1.40
2019-02-08T01:35:24.729Z,1.60
2019-02-08T01:36:24.716Z,1.60
2019-02-08T01:37:24.687Z,1.60
2019-02-08T01:38:24.668Z,1.10
2019-02-08T01:39:24.656Z,1.20
2019-02-08T01:40:24.643Z,1.70
2019-02-08T01:41:24.603Z,1.50
2019-02-08T01:42:24.572Z,1.60
2019-02-08T01:43:24.540Z,1.30
2019-02-08T01:44:24.566Z,1.50
2019-02-08T01:45:24.551Z,1.60
2019-02-08T01:46:24.506Z,1.60
2019-02-08T01:47:24.466Z,1.50
2019-02-08T01:48:24.487Z,1.60
2019-02-08T01:49:24.424Z,1.40
2019-02-08T01:50:24.405Z,1.60
2019-02-08T01:51:24.356Z,1.50
2019-02-08T01:52:24.335Z,1.30
2019-02-08T01:53:24.348Z,1.30
2019-02-08T01:54:24.311Z,1.60
2019-02-08T01:55:24.290Z,1.40
2019-02-08T01:56:24.242Z,1.50
2019-02-08T01:57:24.237Z,1.60
2019-02-08T01:58:24.191Z,1.60
2019-02-08T01:59:24.191Z,1.70
2019-02-08T02:00:24.157Z,1.40
2019-02-08T02:01:24.141Z,1.30
2019-02-08T02:02:24.097Z,1.40
2019-02-08T02:03:24.095Z,1.20
2019-02-08T02:04:24.060Z,1.70
2019-02-08T02:05:24.034Z,1.70
2019-02-08T02:06:24.008Z,1.60
2019-02-08T02:07:23.984Z,1.20
2019-02-08T02:08:23.973Z,1.20
2019-02-08T02:09:23.937Z,1.50
2019-02-08T02:10:23.919Z,1.60
2019-02-08T02:11:23.905Z,1.10
2019-02-08T02:12:23.854Z,1.90
2019-02-08T02:13:23.834Z,1.50
2019-02-08T02:14:23.830Z,1.80
2019-02-08T02:15:23.806Z,1.40
2019-02-08T02:16:23.771Z,1.40
2019-02-08T02:17:23.747Z,1.60
2019-02-08T02:18:23.740Z,1.40
2019-02-08T02:19:23.695Z,1.50
2019-02-08T02:20:23.706Z,1.50
2019-02-08T02:21:23.682Z,1.60
2019-02-08T02:22:23.636Z,1.10
2019-02-08T02:23:23.636Z,1.20
2019-02-08T02:24:23.578Z,1.20
2019-02-08T02:25:23.560Z,1.50
2019-02-08T02:26:23.519Z,1.30
2019-02-08T02:27:23.506Z,1.80
2019-02-08T02:28:23.478Z,1.40
2019-02-08T02:29:23.483Z,1.20
2019-02-08T02:30:23.430Z,1.40
2019-02-08T02:31:23.414Z,1.60
2019-02-08T02:32:23.418Z,1.90
2019-02-08T02:33:23.357Z,1.30
2019-02-08T02:34:23.350Z,1.60
2019-02-08T02:35:23.344Z,1.40
2019-02-08T02:36:23.307Z,1.40
2019-02-08T02:37:23.264Z,1.50
2019-02-08T02:38:23.258Z,1.50
2019-02-08T02:39:23.265Z,1.20
2019-02-08T02:40:23.206Z,1.40
2019-02-08T02:41:23.183Z,1.60
2019-02-08T02:42:23.154Z,1.50
2019-02-08T02:43:23.183Z,2.00
2019-02-08T02:44:23.113Z,1.60
2019-02-08T02:45:23.115Z,1.40
2019-02-08T02:46:23.081Z,1.40
2019-02-08T02:47:23.040Z,1.20
2019-02-08T02:48:23.035Z,1.40
2019-02-08T02:49:22.990Z,1.20
2019-02-08T02:50:22.949Z,1.40
2019-02-08T02:51:22.924Z,1.60
2019-02-08T02:52:22.903Z,1.30
2019-02-08T02:53:22.900Z,1.30
2019-02-08T02:54:22.878Z,1.30
2019-02-08T02:55:22.837Z,1.30
2019-02-08T02:56:22.842Z,1.50
2019-02-08T02:57:22.794Z,1.60
2019-02-08T02:58:22.759Z,1.50
2019-02-08T02:59:22.732Z,1.50
2019-02-08T03:00:22.721Z,1.30
2019-02-08T03:01:22.702Z,1.90
2019-02-08T03:02:22.673Z,1.40
2019-02-08T03:03:22.670Z,1.30
2019-02-08T03:04:22.634Z,1.70
2019-02-08T03:05:22.633Z,1.40
2019-02-08T03:06:22.576Z,1.80
2019-02-08T03:07:22.585Z,1.40
2019-02-08T03:08:22.520Z,1.70
2019-02-08T03:09:22.523Z,1.80
2019-02-08T03:10:22.499Z,1.40
2019-02-08T03:11:22.476Z,1.70
2019-02-08T03:12:22.442Z,1.50
2019-02-08T03:13:22.394Z,1.50
2019-02-08T03:14:22.398Z,1.70
2019-02-08T03:15:22.360Z,1.20
2019-02-08T03:16:22.345Z,2.10
2019-02-08T03:17:22.303Z,1.30
2019-02-08T03:18:22.340Z,1.50
2019-02-08T03:19:22.269Z,1.60
2019-02-08T03:20:22.245Z,1.30
2019-02-08T03:21:22.229Z,1.30
2019-02-08T03:22:22.212Z,1.50
2019-02-08T03:23:22.160Z,1.40
2019-02-08T03:24:22.158Z,1.60
2019-02-08T03:25:22.129Z,1.40
2019-02-08T03:26:22.088Z,1.70
2019-02-08T03:27:22.088Z,1.20
2019-02-08T03:28:22.093Z,1.20
2019-02-08T03:29:22.038Z,1.60
2019-02-08T03:30:22.028Z,1.40
2019-02-08T03:31:21.980Z,1.40
2019-02-08T03:32:21.955Z,1.60
2019-02-08T03:33:21.958Z,1.30
2019-02-08T03:34:21.922Z,1.30
2019-02-08T03:35:21.879Z,1.50
2019-02-08T03:36:21.844Z,1.10
2019-02-08T03:37:21.820Z,1.60
2019-02-08T03:38:21.907Z,1.20
2019-02-08T03:39:21.811Z,1.50
2019-02-08T03:40:21.773Z,1.30
2019-02-08T03:41:21.724Z,1.20
2019-02-08T03:42:21.731Z,1.70
2019-02-08T03:43:21.696Z,1.50
2019-02-08T03:44:21.679Z,1.50
2019-02-08T03:45:21.630Z,1.20
2019-02-08T03:46:21.609Z,1.60
2019-02-08T03:47:21.581Z,1.60
2019-02-08T03:48:21.563Z,2.00
2019-02-08T03:49:21.545Z,1.30
2019-02-08T03:50:21.522Z,1.50
2019-02-08T03:51:21.513Z,1.40
2019-02-08T03:52:21.462Z,1.30
2019-02-08T03:53:21.475Z,1.60
2019-02-08T03:54:21.518Z,1.70
2019-02-08T03:55:21.424Z,2.10
2019-02-08T03:56:21.396Z,1.70
2019-02-08T03:57:21.354Z,1.60
2019-02-08T03:58:21.341Z,1.90
2019-02-08T03:59:21.328Z,1.50
2019-02-08T04:00:21.334Z,1.80
2019-02-08T04:01:21.264Z,1.90
2019-02-08T04:02:21.230Z,2.10
2019-02-08T04:03:21.227Z,1.70
2019-02-08T04:04:21.191Z,1.50
2019-02-08T04:05:21.183Z,1.80
2019-02-08T04:06:21.138Z,1.60
2019-02-08T04:07:21.128Z,1.90
2019-02-08T04:08:21.086Z,1.80
2019-02-08T04:09:21.086Z,1.50
2019-02-08T04:10:21.050Z,1.40
2019-02-08T04:11:21.060Z,1.40
2019-02-08T04:12:21.034Z,1.80
2019-02-08T04:13:20.979Z,1.80
2019-02-08T04:14:20.990Z,1.60
2019-02-08T04:15:20.931Z,1.90
2019-02-08T04:16:20.902Z,1.90
2019-02-08T04:17:20.882Z,1.80
2019-02-08T04:18:20.849Z,1.50
2019-02-08T04:19:20.855Z,1.70
2019-02-08T04:20:20.810Z,1.80
2019-02-08T04:21:20.780Z,1.40
2019-02-08T04:22:20.771Z,1.90
2019-02-08T04:23:20.734Z,1.80
2019-02-08T04:24:20.753Z,1.70
2019-02-08T04:25:20.701Z,1.80
2019-02-08T04:26:20.696Z,1.70
2019-02-08T04:27:20.654Z,1.70
2019-02-08T04:28:20.620Z,1.70
2019-02-08T04:29:20.610Z,1.50
2019-02-08T04:30:20.571Z,1.90
2019-02-08T04:31:20.538Z,2.00
2019-02-08T04:32:20.536Z,1.90
2019-02-08T04:33:20.504Z,1.90
2019-02-08T04:34:20.483Z,1.80
2019-02-08T04:35:20.442Z,1.90
2019-02-08T04:36:20.444Z,1.60
2019-02-08T04:37:20.401Z,1.50
2019-02-08T04:38:20.441Z,1.80
2019-02-08T04:39:20.347Z,1.70
2019-02-08T04:40:20.334Z,1.80
2019-02-08T04:41:20.305Z,2.00
2019-02-08T04:42:20.294Z,1.90
2019-02-08T04:43:20.255Z,1.60
2019-02-08T04:44:20.229Z,1.80
2019-02-08T04:45:20.236Z,1.80
2019-02-08T04:46:20.195Z,1.50
2019-02-08T04:47:20.180Z,1.90
2019-02-08T04:48:20.135Z,2.30
2019-02-08T04:49:20.111Z,1.60
2019-02-08T04:50:20.110Z,1.90
2019-02-08T04:51:20.077Z,1.80
2019-02-08T04:52:20.058Z,1.70
2019-02-08T04:53:20.045Z,2.00
2019-02-08T04:54:20.044Z,2.10
2019-02-08T04:55:19.988Z,1.40
2019-02-08T04:56:19.980Z,1.90
2019-02-08T04:57:19.925Z,1.80
2019-02-08T04:58:19.905Z,1.80
2019-02-08T04:59:19.882Z,2.10
2019-02-08T05:00:19.877Z,2.10
2019-02-08T05:01:19.853Z,1.80
2019-02-08T05:02:19.822Z,1.90
2019-02-08T05:03:19.787Z,1.60
2019-02-08T05:04:19.782Z,1.80
2019-02-08T05:05:19.742Z,2.40
2019-02-08T05:06:19.714Z,2.00
2019-02-08T05:07:19.695Z,2.20
2019-02-08T05:08:19.674Z,1.90
2019-02-08T05:09:19.677Z,2.40
2019-02-08T05:10:19.640Z,2.00
2019-02-08T05:11:19.603Z,2.30
2019-02-08T05:12:19.604Z,2.10
2019-02-08T05:13:19.560Z,2.30
2019-02-08T05:14:19.528Z,2.10
2019-02-08T05:15:19.505Z,2.40
2019-02-08T05:16:19.515Z,2.10
2019-02-08T05:17:19.453Z,2.30
2019-02-08T05:18:19.443Z,2.70
2019-02-08T05:19:19.407Z,2.40
2019-02-08T05:20:19.422Z,2.30
2019-02-08T05:21:19.398Z,2.10
2019-02-08T05:22:19.341Z,2.30
2019-02-08T05:23:19.337Z,2.40
2019-02-08T05:24:19.301Z,2.70
2019-02-08T05:25:19.291Z,2.20
2019-02-08T05:26:19.246Z,2.70
2019-02-08T05:27:19.221Z,2.20
2019-02-08T05:28:19.195Z,2.50
2019-02-08T05:29:19.190Z,2.20
2019-02-08T05:30:19.188Z,2.60
2019-02-08T05:31:19.133Z,2.80
2019-02-08T05:32:19.102Z,2.70
2019-02-08T05:33:19.094Z,2.80
2019-02-08T05:34:19.062Z,2.90
2019-02-08T05:35:19.081Z,2.80
2019-02-08T05:36:19.045Z,3.00
2019-02-08T05:37:19.002Z,2.80
2019-02-08T05:38:18.961Z,2.60
2019-02-08T05:39:18.930Z,2.90
2019-02-08T05:40:18.940Z,2.50
2019-02-08T05:41:18.903Z,2.80
2019-02-08T05:42:18.876Z,2.60
2019-02-08T05:43:18.864Z,2.80
2019-02-08T05:44:18.837Z,2.80
2019-02-08T05:45:18.852Z,2.90
2019-02-08T05:46:18.771Z,2.90
2019-02-08T05:47:18.751Z,2.50
2019-02-08T05:48:18.740Z,2.80
2019-02-08T05:49:18.729Z,2.80
2019-02-08T05:50:18.686Z,2.40
2019-02-08T05:51:18.655Z,2.40
2019-02-08T05:52:18.650Z,2.80
2019-02-08T05:53:18.614Z,2.70
2019-02-08T05:54:18.609Z,2.70
2019-02-08T05:55:18.563Z,2.60
2019-02-08T05:56:18.559Z,3.10
2019-02-08T05:57:18.537Z,2.70
2019-02-08T05:58:18.486Z,2.50
2019-02-08T05:59:18.468Z,2.70
2019-02-08T06:00:18.442Z,2.80
2019-02-08T06:01:18.450Z,2.40
2019-02-08T06:02:18.421Z,3.10
2019-02-08T06:03:18.402Z,2.70
2019-02-08T06:04:18.342Z,2.70
2019-02-08T06:05:18.326Z,2.80
2019-02-08T06:06:18.324Z,2.80
2019-02-08T06:07:18.288Z,2.90
2019-02-08T06:08:18.258Z,2.70
2019-02-08T06:09:18.232Z,2.90
2019-02-08T06:10:18.202Z,3.10
2019-02-08T06:11:18.179Z,2.90
2019-02-08T06:12:18.175Z,3.20
2019-02-08T06:13:18.134Z,2.80
2019-02-08T06:14:18.126Z,2.40
2019-02-08T06:15:18.099Z,2.30
2019-02-08T06:16:18.072Z,2.70
2019-02-08T06:17:18.051Z,3.30
2019-02-08T06:18:18.026Z,2.90
2019-02-08T06:19:18.027Z,2.70
2019-02-08T06:20:17.971Z,3.20
2019-02-08T06:21:17.945Z,2.90
2019-02-08T06:22:17.930Z,2.80
2019-02-08T06:23:17.900Z,2.60
2019-02-08T06:24:17.879Z,2.80
2019-02-08T06:25:17.884Z,2.90
2019-02-08T06:26:17.852Z,2.50
2019-02-08T06:27:17.817Z,2.90
2019-02-08T06:28:17.788Z,2.80
2019-02-08T06:29:17.767Z,2.60
2019-02-08T06:30:17.744Z,2.60
2019-02-08T06:31:17.718Z,3.20
2019-02-08T06:32:17.689Z,2.70
2019-02-08T06:33:17.652Z,2.60
2019-02-08T06:34:17.633Z,3.00
2019-02-08T06:35:17.639Z,2.60
2019-02-08T06:36:17.603Z,2.90
2019-02-08T06:37:17.563Z,3.10
2019-02-08T06:38:17.547Z,2.80
2019-02-08T06:39:17.532Z,2.70
2019-02-08T06:40:17.495Z,2.70
2019-02-08T06:41:17.476Z,2.80
2019-02-08T06:42:17.474Z,2.60
2019-02-08T06:43:17.415Z,2.60
2019-02-08T06:44:17.416Z,2.50
2019-02-08T06:45:17.376Z,3.10
2019-02-08T06:46:17.352Z,2.70
2019-02-08T06:47:17.335Z,2.70
2019-02-08T06:48:17.301Z,2.60
2019-02-08T06:49:17.295Z,2.40
2019-02-08T06:50:17.278Z,2.90
2019-02-08T06:51:17.237Z,3.00
2019-02-08T06:52:17.209Z,2.70
2019-02-08T06:53:17.192Z,2.40
2019-02-08T06:54:17.154Z,2.70
2019-02-08T06:55:17.148Z,2.80
2019-02-08T06:56:17.130Z,2.30
2019-02-08T06:57:17.120Z,2.80
2019-02-08T06:58:17.067Z,2.70
2019-02-08T06:59:17.096Z,2.90
2019-02-08T07:00:17.016Z,2.50
2019-02-08T07:01:17.023Z,2.50
2019-02-08T07:02:16.976Z,2.60
2019-02-08T07:03:16.970Z,2.50
2019-02-08T07:04:16.938Z,2.50
2019-02-08T07:05:16.901Z,2.90
2019-02-08T07:06:16.879Z,2.70
2019-02-08T07:07:16.865Z,2.60
2019-02-08T07:08:16.840Z,2.90
2019-02-08T07:09:16.831Z,3.10
2019-02-08T07:10:16.797Z,2.60
2019-02-08T07:11:16.821Z,2.60
2019-02-08T07:12:16.758Z,2.60
2019-02-08T07:13:16.726Z,2.50
2019-02-08T07:14:16.721Z,2.50
2019-02-08T07:15:16.680Z,2.70
2019-02-08T07:16:16.667Z,2.50
2019-02-08T07:17:16.635Z,3.00
2019-02-08T07:18:16.616Z,2.40
2019-02-08T07:19:16.610Z,2.50
2019-02-08T07:20:16.551Z,2.40
2019-02-08T07:21:16.519Z,2.30
2019-02-08T07:22:16.516Z,2.50
2019-02-08T07:23:16.489Z,2.10
2019-02-08T07:24:16.488Z,2.40
2019-02-08T07:25:18.705Z,2.70
2019-02-08T07:26:16.404Z,2.30
2019-02-08T07:27:16.392Z,2.20
2019-02-08T07:28:16.356Z,2.50
2019-02-08T07:29:16.338Z,2.40
2019-02-08T07:30:16.329Z,2.40
2019-02-08T07:31:16.312Z,2.90
2019-02-08T07:32:16.293Z,2.50
2019-02-08T07:33:16.264Z,2.60
2019-02-08T07:34:16.227Z,2.40
2019-02-08T07:35:16.206Z,2.00
2019-02-08T07:36:16.210Z,2.10
2019-02-08T07:37:16.164Z,2.00
2019-02-08T07:38:16.142Z,2.30
2019-02-08T07:39:16.139Z,2.20
2019-02-08T07:40:16.100Z,2.20
2019-02-08T07:41:16.078Z,2.50
2019-02-08T07:42:16.045Z,2.60
2019-02-08T07:43:16.029Z,2.20
2019-02-08T07:44:15.999Z,2.10
2019-02-08T07:45:15.960Z,2.30
2019-02-08T07:46:15.942Z,2.20
2019-02-08T07:47:15.928Z,2.20
2019-02-08T07:48:15.925Z,2.30
2019-02-08T07:49:15.880Z,2.40
2019-02-08T07:50:15.900Z,2.70
2019-02-08T07:51:15.823Z,2.20
2019-02-08T07:52:15.831Z,2.30
2019-02-08T07:53:15.790Z,2.20
2019-02-08T07:54:15.741Z,2.00
2019-02-08T07:55:15.721Z,2.20
2019-02-08T07:56:15.697Z,2.20
2019-02-08T07:57:15.676Z,2.10
2019-02-08T07:58:15.677Z,2.40
2019-02-08T07:59:15.667Z,2.10
2019-02-08T08:00:15.649Z,2.10
2019-02-08T08:01:15.601Z,2.10
2019-02-08T08:02:15.574Z,2.20
2019-02-08T08:03:15.561Z,2.20
2019-02-08T08:04:15.542Z,2.30
2019-02-08T08:05:15.516Z,2.20
2019-02-08T08:06:15.514Z,2.20
2019-02-08T08:07:15.474Z,2.10
2019-02-08T08:08:15.436Z,1.90
2019-02-08T08:09:15.418Z,2.10
2019-02-08T08:10:15.383Z,2.00
2019-02-08T08:11:15.352Z,2.10
2019-02-08T08:12:15.333Z,2.10
2019-02-08T08:13:15.325Z,1.90
2019-02-08T08:14:15.285Z,2.10
2019-02-08T08:15:15.266Z,2.20
2019-02-08T08:16:15.280Z,2.10
2019-02-08T08:17:15.244Z,2.10
2019-02-08T08:18:15.215Z,1.80
2019-02-08T08:19:16.006Z,1.70
2019-02-08T08:20:15.156Z,1.90
2019-02-08T08:21:15.155Z,1.60
2019-02-08T08:22:15.116Z,1.70
2019-02-08T08:23:15.077Z,1.70
2019-02-08T08:24:15.076Z,2.00
2019-02-08T08:25:15.042Z,1.90
2019-02-08T08:26:15.024Z,1.90
2019-02-08T08:27:15.018Z,1.70
2019-02-08T08:28:14.982Z,1.80
2019-02-08T08:29:14.953Z,1.80
2019-02-08T08:30:14.928Z,2.00
2019-02-08T08:31:14.890Z,2.40
2019-02-08T08:32:14.901Z,1.80
2019-02-08T08:33:14.870Z,1.50
2019-02-08T08:34:14.824Z,2.00
2019-02-08T08:35:14.810Z,2.20
2019-02-08T08:36:14.786Z,2.20
2019-02-08T08:37:14.763Z,1.70
2019-02-08T08:38:14.764Z,2.00
2019-02-08T08:39:14.735Z,2.00
2019-02-08T08:40:14.704Z,1.90
2019-02-08T08:41:14.667Z,1.50
2019-02-08T08:42:14.649Z,2.10
2019-02-08T08:43:15.246Z,1.50
2019-02-08T08:44:14.624Z,1.70
2019-02-08T08:45:14.623Z,1.90
2019-02-08T08:46:14.548Z,1.90
2019-02-08T08:47:14.534Z,1.70
2019-02-08T08:48:14.515Z,1.80
2019-02-08T08:49:14.482Z,1.70
2019-02-08T08:50:14.473Z,1.80
2019-02-08T08:51:14.452Z,1.60
2019-02-08T08:52:14.420Z,1.40
2019-02-08T08:53:14.387Z,1.80
2019-02-08T08:54:14.363Z,1.80
2019-02-08T08:55:14.344Z,1.70
2019-02-08T08:56:14.337Z,1.60
2019-02-08T08:57:14.327Z,1.60
2019-02-08T08:58:14.295Z,1.60
2019-02-08T08:59:14.269Z,1.50
2019-02-08T09:00:14.231Z,1.20
2019-02-08T09:01:14.206Z,1.60
2019-02-08T09:02:14.175Z,2.10
2019-02-08T09:03:14.193Z,1.80
2019-02-08T09:04:14.141Z,1.70
2019-02-08T09:05:14.126Z,1.60
2019-02-08T09:06:14.106Z,1.40
2019-02-08T09:07:16.415Z,1.50
2019-02-08T09:08:14.052Z,1.50
2019-02-08T09:09:14.049Z,1.60
2019-02-08T09:10:14.031Z,1.80
2019-02-08T09:11:13.978Z,1.30
2019-02-08T09:12:13.968Z,1.50
2019-02-08T09:13:15.042Z,1.40
2019-02-08T09:14:13.922Z,1.80
2019-02-08T09:15:13.911Z,1.70
2019-02-08T09:16:13.891Z,1.50
2019-02-08T09:17:13.856Z,1.70
2019-02-08T09:18:13.817Z,1.60
2019-02-08T09:19:13.808Z,1.60
2019-02-08T09:20:13.807Z,1.50
2019-02-08T09:21:13.771Z,1.60
2019-02-08T09:22:13.727Z,1.40
2019-02-08T09:23:13.707Z,1.60
2019-02-08T09:24:13.684Z,1.70
2019-02-08T09:25:13.682Z,1.70
2019-02-08T09:26:13.658Z,1.90
2019-02-08T09:27:13.631Z,1.50
2019-02-08T09:28:13.601Z,1.70
2019-02-08T09:29:13.577Z,1.60
2019-02-08T09:30:13.563Z,1.70
2019-02-08T09:31:13.527Z,1.60
2019-02-08T09:32:13.527Z,1.80
2019-02-08T09:33:13.501Z,1.40
2019-02-08T09:34:13.466Z,1.60
2019-02-08T09:35:13.439Z,1.70
2019-02-08T09:36:13.410Z,1.80
2019-02-08T09:37:13.400Z,1.80
2019-02-08T09:38:13.378Z,1.50
2019-02-08T09:39:13.369Z,1.60
2019-02-08T09:40:13.338Z,1.50
2019-02-08T09:41:13.302Z,1.60
2019-02-08T09:42:13.281Z,1.50
2019-02-08T09:43:13.297Z,1.60
2019-02-08T09:44:13.239Z,1.70
2019-02-08T09:45:14.692Z,1.60
2019-02-08T09:46:13.181Z,1.40
2019-02-08T09:47:13.179Z,1.40
2019-02-08T09:48:13.168Z,1.70
2019-02-08T09:49:13.122Z,1.50
2019-02-08T09:50:13.103Z,1.50
2019-02-08T09:51:13.082Z,1.70
2019-02-08T09:52:13.087Z,1.30
2019-02-08T09:53:13.059Z,1.70
2019-02-08T09:54:13.003Z,1.50
2019-02-08T09:55:12.982Z,1.20
2019-02-08T09:56:12.959Z,1.60
2019-02-08T09:57:12.978Z,1.60
2019-02-08T09:58:12.924Z,1.00
2019-02-08T09:59:12.900Z,1.40
2019-02-08T10:00:12.902Z,1.20
2019-02-08T10:01:12.853Z,1.40
2019-02-08T10:02:12.855Z,1.40
2019-02-08T10:03:12.827Z,1.40
2019-02-08T10:04:12.783Z,1.60
2019-02-08T10:05:12.770Z,1.10
2019-02-08T10:06:12.745Z,1.30
2019-02-08T10:07:12.735Z,1.60
2019-02-08T10:08:12.697Z,1.50
2019-02-08T10:09:12.697Z,1.30
2019-02-08T10:10:12.668Z,1.40
2019-02-08T10:11:12.646Z,1.20
2019-02-08T10:12:12.636Z,1.30
2019-02-08T10:13:12.584Z,1.20
2019-02-08T10:14:12.583Z,1.30
2019-02-08T10:15:12.549Z,1.30
2019-02-08T10:16:12.527Z,1.50
2019-02-08T10:17:12.500Z,1.60
2019-02-08T10:18:12.480Z,1.20
2019-02-08T10:19:12.463Z,1.30
2019-02-08T10:20:12.471Z,1.30
2019-02-08T10:21:12.438Z,1.10
2019-02-08T10:22:12.440Z,1.60
2019-02-08T10:23:12.364Z,1.60
2019-02-08T10:24:12.347Z,1.30
2019-02-08T10:25:12.320Z,1.70
2019-02-08T10:26:12.324Z,1.30
2019-02-08T10:27:12.301Z,1.30
2019-02-08T10:28:12.256Z,1.70
2019-02-08T10:29:12.241Z,1.40
2019-02-08T10:30:12.222Z,1.40
2019-02-08T10:31:12.225Z,1.50
2019-02-08T10:32:12.173Z,1.20
2019-02-08T10:33:12.151Z,1.50
2019-02-08T10:34:12.127Z,1.40
2019-02-08T10:35:12.112Z,1.60
2019-02-08T10:36:12.087Z,1.50
2019-02-08T10:37:12.084Z,1.40
2019-02-08T10:38:12.038Z,1.30
2019-02-08T10:39:12.761Z,1.40
2019-02-08T10:40:12.023Z,1.50
2019-02-08T10:41:11.969Z,1.50
2019-02-08T10:42:11.940Z,1.50
2019-02-08T10:43:11.959Z,1.50
2019-02-08T10:44:11.932Z,1.50
2019-02-08T10:45:11.916Z,1.30
2019-02-08T10:46:12.052Z,1.50
2019-02-08T10:47:12.843Z,1.50
2019-02-08T10:48:11.814Z,1.60
2019-02-08T10:49:11.807Z,1.00
2019-02-08T10:50:11.786Z,1.20
2019-02-08T10:51:11.771Z,1.30
2019-02-08T10:52:11.733Z,1.00
2019-02-08T10:53:11.730Z,1.20
2019-02-08T10:54:11.708Z,1.10
2019-02-08T10:55:11.660Z,1.20
2019-02-08T10:56:14.983Z,1.10
2019-02-08T10:57:11.649Z,1.20
2019-02-08T10:58:11.601Z,1.20
2019-02-08T10:59:11.572Z,1.00
2019-02-08T11:00:11.596Z,1.30
2019-02-08T11:01:11.565Z,1.10
2019-02-08T11:02:11.539Z,1.30
2019-02-08T11:03:11.509Z,1.10
2019-02-08T11:04:11.485Z,0.80
2019-02-08T11:05:11.445Z,1.40
2019-02-08T11:06:11.420Z,1.50
2019-02-08T11:07:11.395Z,1.30
2019-02-08T11:08:11.385Z,1.50
2019-02-08T11:09:11.376Z,1.10
2019-02-08T11:10:11.331Z,1.00
2019-02-08T11:11:11.868Z,1.20
2019-02-08T11:12:11.308Z,1.40
2019-02-08T11:13:11.275Z,0.90
2019-02-08T11:14:11.296Z,1.00
2019-02-08T11:15:11.869Z,1.00
2019-02-08T11:16:11.232Z,1.10
2019-02-08T11:17:11.190Z,0.90
2019-02-08T11:18:11.162Z,1.10
2019-02-08T11:19:11.146Z,1.20
2019-02-08T11:20:11.137Z,1.10
2019-02-08T11:21:11.092Z,1.10
2019-02-08T11:22:11.088Z,1.10
2019-02-08T11:23:11.086Z,1.10
2019-02-08T11:24:11.069Z,1.00
2019-02-08T11:25:11.007Z,0.90
2019-02-08T11:26:11.007Z,1.00
2019-02-08T11:27:10.995Z,0.90
2019-02-08T11:28:10.946Z,1.10
2019-02-08T11:29:10.951Z,1.10
2019-02-08T11:30:10.928Z,0.90
2019-02-08T11:31:10.880Z,0.80
2019-02-08T11:32:10.870Z,1.10
2019-02-08T11:33:10.841Z,1.10
2019-02-08T11:34:10.828Z,0.90
2019-02-08T11:35:10.816Z,1.30
2019-02-08T11:36:10.787Z,0.90
2019-02-08T11:37:10.757Z,1.00
2019-02-08T11:38:10.764Z,0.90
2019-02-08T11:39:10.752Z,1.20
2019-02-08T11:40:10.718Z,0.90
2019-02-08T11:41:10.681Z,1.30
2019-02-08T11:42:11.273Z,1.10
2019-02-08T11:43:10.636Z,1.10
2019-02-08T11:44:10.612Z,0.90
2019-02-08T11:45:10.612Z,1.20
2019-02-08T11:46:10.565Z,1.30
2019-02-08T11:47:10.556Z,1.10
2019-02-08T11:48:10.538Z,1.20
2019-02-08T11:49:10.487Z,1.10
2019-02-08T11:50:10.541Z,1.10
2019-02-08T11:51:10.453Z,1.20
2019-02-08T11:52:10.470Z,1.00
2019-02-08T11:53:10.416Z,1.00
2019-02-08T11:54:10.407Z,1.20
2019-02-08T11:55:10.364Z,1.10
2019-02-08T11:56:10.368Z,0.90
2019-02-08T11:57:10.321Z,1.10
2019-02-08T11:58:10.303Z,1.20
2019-02-08T11:59:10.274Z,0.90
2019-02-08T12:00:10.273Z,1.10
2019-02-08T12:01:10.231Z,1.00
2019-02-08T12:02:10.225Z,1.00
2019-02-08T12:03:10.188Z,1.10
2019-02-08T12:04:10.179Z,1.20
2019-02-08T12:05:10.146Z,1.40
2019-02-08T12:06:10.130Z,1.10
2019-02-08T12:07:10.108Z,1.20
2019-02-08T12:08:10.106Z,1.00
2019-02-08T12:09:10.069Z,0.80
2019-02-08T12:10:10.051Z,1.30
2019-02-08T12:11:10.017Z,1.10
2019-02-08T12:12:09.996Z,0.90
2019-02-08T12:13:10.018Z,1.10
2019-02-08T12:14:09.968Z,0.90
2019-02-08T12:15:09.973Z,0.90
2019-02-08T12:16:09.919Z,1.20
2019-02-08T12:17:09.909Z,0.90
2019-02-08T12:18:09.880Z,1.00
2019-02-08T12:19:09.850Z,0.90
2019-02-08T12:20:09.852Z,1.00
2019-02-08T12:21:09.826Z,0.80
2019-02-08T12:22:09.814Z,1.00
2019-02-08T12:23:09.796Z,0.80
2019-02-08T12:24:09.770Z,0.80
2019-02-08T12:25:09.747Z,0.90
2019-02-08T12:26:09.693Z,0.90
2019-02-08T12:27:09.707Z,1.00
2019-02-08T12:28:09.655Z,0.60
2019-02-08T12:29:09.661Z,0.80
2019-02-08T12:30:09.613Z,0.80
2019-02-08T12:31:09.651Z,1.00
2019-02-08T12:32:09.583Z,0.80
2019-02-08T12:33:09.576Z,1.00
2019-02-08T12:34:09.541Z,0.80
2019-02-08T12:35:09.533Z,1.00
2019-02-08T12:36:09.490Z,0.90
2019-02-08T12:37:09.501Z,0.90
2019-02-08T12:38:09.482Z,0.90
2019-02-08T12:39:09.425Z,0.80
2019-02-08T12:40:09.419Z,0.80
2019-02-08T12:41:10.051Z,0.60
2019-02-08T12:42:09.367Z,1.00
2019-02-08T12:43:09.339Z,0.80
2019-02-08T12:44:09.335Z,0.60
2019-02-08T12:45:09.290Z,0.90
2019-02-08T12:46:09.277Z,1.00
2019-02-08T12:47:09.255Z,0.90
2019-02-08T12:48:09.257Z,1.10
2019-02-08T12:49:09.220Z,0.80
2019-02-08T12:50:09.202Z,1.10
2019-02-08T12:51:09.178Z,1.00
2019-02-08T12:52:09.146Z,1.00
2019-02-08T12:53:09.126Z,0.70
2019-02-08T12:54:09.120Z,0.90
2019-02-08T12:55:09.092Z,0.80
2019-02-08T12:56:09.061Z,0.80
2019-02-08T12:57:09.052Z,1.00
2019-02-08T12:58:09.023Z,0.90
2019-02-08T12:59:09.025Z,0.80
2019-02-08T13:00:08.974Z,1.00
2019-02-08T13:01:08.977Z,0.60
2019-02-08T13:02:08.956Z,1.00
2019-02-08T13:03:08.906Z,1.00
2019-02-08T13:04:08.901Z,0.90
2019-02-08T13:05:08.872Z,0.90
2019-02-08T13:06:08.842Z,0.70
2019-02-08T13:07:10.361Z,0.70
2019-02-08T13:08:08.816Z,0.60
2019-02-08T13:09:08.789Z,1.30
2019-02-08T13:10:08.768Z,0.90
2019-02-08T13:11:08.737Z,1.00
2019-02-08T13:12:08.740Z,1.00
2019-02-08T13:13:08.722Z,1.30
2019-02-08T13:14:08.690Z,1.10
2019-02-08T13:15:08.666Z,1.00
2019-02-08T13:16:08.647Z,0.90
2019-02-08T13:17:08.629Z,1.10
2019-02-08T13:18:08.657Z,1.20